DFFD

Ouagadougou Airport

Ouagadougou, Burkina Faso
TAF DFFD 181700Z 1818/1924 VRB08KT 8000 NSC TEMPO 1818/1821 4000 DU TEMPO 1906/1910 2000 DU TEMPO 1917/1921 4000 DU
Issued Valid From Valid To
Jan-18 @ 17:00 UTC
(3 hours ago)
Jan-18 @ 18:00 UTC
(2 hours ago)
Jan-20 @ 00:00 UTC
(-1 days ago)
Jan-18 @ 18:00 to Jan-20 @ 00:00
TAF DFFD 181700Z 1818/1924 VRB08KT 8000 NSC
Wind Visibility Clouds
Variable at 8 knots 7,998 meters
  • No significant clouds
Temporary Jan-18 @ 18:00 to Jan-18 @ 21:00
TEMPO 1818/1821 4000 DU
Visibility Conditions
4,007 meters
  • Dust
Temporary Jan-19 @ 06:00 to Jan-19 @ 10:00
TEMPO 1906/1910 2000 DU
Visibility Conditions
1,996 meters
  • Dust
Temporary Jan-19 @ 17:00 to Jan-19 @ 21:00
TEMPO 1917/1921 4000 DU
Visibility Conditions
4,007 meters
  • Dust
TAF DFFD 181700Z 1818/1924 VRB08KT 8000 NSC TEMPO 1818/1821 4000 DU TEMPO 1906/1910 2000 DU TEMPO 1917/1921 4000 DU
Issued Jan-18 @ 17:00 UTC
(3 hours ago)
Valid From Jan-18 @ 18:00 UTC
(2 hours ago)
Valid To Jan-20 @ 00:00 UTC
(-1 days ago)
Jan-18 @ 18:00 - Jan-20 @ 00:00
Wind Visibility
Variable at 8 knots 7,998 meters
Clouds
  • No significant clouds
Temporary Jan-18 @ 18:00 - Jan-18 @ 21:00
Conditions
  • Dust
Temporary Jan-19 @ 06:00 - Jan-19 @ 10:00
Conditions
  • Dust
Temporary Jan-19 @ 17:00 - Jan-19 @ 21:00
Conditions
  • Dust